createdAt,value
2024-05-09T00:00:36.370Z,85.10
2024-05-09T00:03:08.238Z,85.50
2024-05-09T00:05:36.656Z,85.79
2024-05-09T00:08:04.135Z,86.60
2024-05-09T00:10:36.363Z,86.50
2024-05-09T00:13:05.873Z,86.55
2024-05-09T00:15:33.600Z,86.56
2024-05-09T00:18:00.952Z,86.54
2024-05-09T00:20:36.002Z,86.47
2024-05-09T00:23:07.508Z,86.55
2024-05-09T00:25:34.744Z,86.87
2024-05-09T00:28:01.585Z,86.85
2024-05-09T00:30:34.288Z,87.13
2024-05-09T00:33:04.500Z,87.04
2024-05-09T00:35:32.567Z,87.29
2024-05-09T00:37:59.882Z,87.15
2024-05-09T00:40:37.298Z,87.23
2024-05-09T00:43:06.877Z,86.99
2024-05-09T00:45:35.034Z,87.24
2024-05-09T00:48:07.062Z,87.25
2024-05-09T00:50:37.574Z,87.28
2024-05-09T00:53:09.827Z,87.83
2024-05-09T00:55:39.044Z,87.76
2024-05-09T00:58:06.926Z,88.06
2024-05-09T01:00:39.052Z,88.08
2024-05-09T01:03:09.575Z,88.49
2024-05-09T01:05:39.158Z,88.51
2024-05-09T01:08:07.155Z,88.52
2024-05-09T01:10:35.558Z,89.03
2024-05-09T01:13:04.344Z,89.09
2024-05-09T01:15:31.295Z,88.98
2024-05-09T01:18:00.706Z,88.96
2024-05-09T01:20:37.029Z,89.02
2024-05-09T01:23:09.570Z,89.08
2024-05-09T01:25:36.915Z,88.99
2024-05-09T01:28:03.832Z,88.98
2024-05-09T01:30:34.987Z,89.16
2024-05-09T01:33:05.663Z,89.59
2024-05-09T01:35:33.742Z,90.33
2024-05-09T01:38:00.519Z,89.86
2024-05-09T01:40:36.368Z,89.80
2024-05-09T01:43:05.888Z,89.82
2024-05-09T01:45:32.632Z,90.24
2024-05-09T01:47:59.606Z,90.33
2024-05-09T01:50:37.288Z,90.34
2024-05-09T01:53:08.300Z,90.42
2024-05-09T01:55:35.161Z,90.12
2024-05-09T01:58:01.843Z,90.26
2024-05-09T02:00:37.344Z,90.37
2024-05-09T02:03:11.582Z,90.54
2024-05-09T02:05:41.203Z,90.47
2024-05-09T02:08:13.823Z,90.64
2024-05-09T02:10:40.567Z,90.85
2024-05-09T02:13:10.029Z,90.75
2024-05-09T02:15:36.767Z,90.96
2024-05-09T02:18:04.160Z,91.25
2024-05-09T02:20:36.183Z,91.47
2024-05-09T02:23:05.158Z,91.47
2024-05-09T02:25:32.967Z,91.49
2024-05-09T02:27:59.782Z,91.78
2024-05-09T02:30:36.194Z,91.81
2024-05-09T02:33:07.910Z,91.65
2024-05-09T02:35:35.224Z,92.05
2024-05-09T02:38:02.122Z,92.42
2024-05-09T02:40:36.154Z,92.24
2024-05-09T02:43:06.019Z,92.37
2024-05-09T02:45:33.203Z,92.59
2024-05-09T02:48:00.510Z,92.57
2024-05-09T02:50:34.489Z,92.66
2024-05-09T02:53:05.950Z,92.31
2024-05-09T02:55:33.102Z,92.68
2024-05-09T02:57:59.956Z,92.69
2024-05-09T03:00:35.059Z,92.73
2024-05-09T03:03:08.321Z,92.70
2024-05-09T03:05:36.444Z,92.71
2024-05-09T03:08:03.614Z,92.86
2024-05-09T03:10:35.871Z,93.24
2024-05-09T03:13:12.638Z,93.20
2024-05-09T03:15:40.553Z,92.88
2024-05-09T03:18:07.617Z,92.95
2024-05-09T03:20:36.256Z,93.36
2024-05-09T03:23:05.203Z,93.54
2024-05-09T03:25:32.429Z,93.42
2024-05-09T03:27:59.536Z,93.51
2024-05-09T03:30:38.135Z,93.35
2024-05-09T03:33:17.735Z,93.55
2024-05-09T03:35:46.667Z,93.59
2024-05-09T03:38:14.033Z,93.62
2024-05-09T03:40:48.717Z,93.54
2024-05-09T03:43:16.814Z,93.42
2024-05-09T03:45:43.902Z,93.34
2024-05-09T03:48:10.899Z,93.29
2024-05-09T03:50:38.096Z,93.41
2024-05-09T03:53:05.429Z,93.64
2024-05-09T03:55:32.240Z,94.09
2024-05-09T03:57:59.370Z,93.82
2024-05-09T04:00:34.709Z,93.69
2024-05-09T04:03:07.434Z,93.73
2024-05-09T04:05:36.779Z,93.61
2024-05-09T04:08:03.717Z,93.75
2024-05-09T04:10:33.700Z,93.74
2024-05-09T04:13:02.371Z,94.06
2024-05-09T04:15:29.498Z,94.37
2024-05-09T04:17:56.654Z,94.36
2024-05-09T04:20:35.545Z,94.42
2024-05-09T04:23:06.829Z,94.01
2024-05-09T04:25:34.015Z,93.98
2024-05-09T04:28:00.833Z,94.00
2024-05-09T04:30:36.393Z,94.03
2024-05-09T04:33:08.050Z,94.04
2024-05-09T04:35:36.341Z,93.73
2024-05-09T04:38:03.514Z,93.63
2024-05-09T04:40:34.258Z,93.77
2024-05-09T04:43:04.257Z,93.71
2024-05-09T04:45:31.267Z,93.70
2024-05-09T04:47:58.443Z,93.31
2024-05-09T04:50:33.590Z,93.10
2024-05-09T04:53:05.114Z,92.65
2024-05-09T04:55:32.669Z,92.60
2024-05-09T04:57:59.361Z,92.38
2024-05-09T05:00:34.170Z,92.13
2024-05-09T05:03:10.150Z,91.83
2024-05-09T05:05:42.085Z,91.48
2024-05-09T05:08:13.128Z,91.32
2024-05-09T05:10:40.716Z,91.06
2024-05-09T05:13:21.080Z,90.60
2024-05-09T05:15:50.309Z,90.12
2024-05-09T05:18:17.713Z,89.72
2024-05-09T05:20:45.070Z,88.65
2024-05-09T05:23:16.084Z,86.93
2024-05-09T05:25:43.500Z,86.67
2024-05-09T05:28:10.764Z,86.03
2024-05-09T05:30:38.354Z,85.56
2024-05-09T05:33:07.078Z,84.64
2024-05-09T05:35:34.862Z,83.41
2024-05-09T05:38:02.448Z,82.89
2024-05-09T05:40:36.305Z,81.62
2024-05-09T05:43:05.878Z,81.55
2024-05-09T05:45:32.519Z,80.16
2024-05-09T05:47:59.978Z,78.73
2024-05-09T05:50:32.822Z,77.64
2024-05-09T05:53:03.407Z,73.05
2024-05-09T05:55:30.214Z,67.98
2024-05-09T05:57:56.884Z,61.78
2024-05-09T06:00:29.975Z,58.77
2024-05-09T06:03:05.186Z,54.73
2024-05-09T06:05:32.662Z,53.34
2024-05-09T06:07:59.733Z,51.11
2024-05-09T06:10:34.975Z,49.90
2024-05-09T06:13:05.685Z,50.27
2024-05-09T06:15:32.340Z,49.22
2024-05-09T06:17:59.583Z,48.77
2024-05-09T06:20:34.821Z,48.66
2024-05-09T06:23:05.070Z,48.46
2024-05-09T06:25:32.071Z,45.99
2024-05-09T06:28:00.507Z,46.65
2024-05-09T06:30:36.682Z,47.40
2024-05-09T06:33:07.479Z,43.94
2024-05-09T06:35:34.455Z,43.45
2024-05-09T06:38:01.665Z,44.50
2024-05-09T06:40:36.464Z,42.46
2024-05-09T06:43:13.472Z,41.80
2024-05-09T06:45:40.412Z,41.55
2024-05-09T06:48:08.899Z,42.78
2024-05-09T06:50:38.241Z,40.70
2024-05-09T06:53:07.519Z,41.77
2024-05-09T06:55:34.601Z,40.24
2024-05-09T06:58:01.596Z,40.81
2024-05-09T07:00:35.704Z,40.14
2024-05-09T07:03:16.059Z,39.76
2024-05-09T07:05:45.811Z,38.86
2024-05-09T07:08:13.429Z,39.10
2024-05-09T07:10:40.219Z,38.30
2024-05-09T07:13:10.489Z,38.02
2024-05-09T07:15:37.576Z,37.85
2024-05-09T07:18:18.454Z,37.35
2024-05-09T07:20:46.856Z,35.97
2024-05-09T07:23:14.118Z,36.03
2024-05-09T07:25:41.807Z,37.22
2024-05-09T07:28:13.116Z,36.40
2024-05-09T07:30:39.820Z,35.50
2024-05-09T07:33:06.683Z,34.76
2024-05-09T07:35:33.723Z,34.89
2024-05-09T07:38:00.733Z,35.56
2024-05-09T07:40:35.063Z,34.74
2024-05-09T07:43:16.486Z,34.30
2024-05-09T07:45:51.421Z,34.03
2024-05-09T07:52:38.492Z,33.13
2024-05-09T07:53:46.428Z,32.95
2024-05-09T07:56:16.851Z,33.29
2024-05-09T07:58:44.355Z,31.89
2024-05-09T08:01:11.121Z,32.51
2024-05-09T08:03:38.255Z,32.18
2024-05-09T08:06:05.239Z,32.23
2024-05-09T08:08:31.809Z,31.48
2024-05-09T08:10:58.614Z,30.28
2024-05-09T08:13:25.261Z,30.06
2024-05-09T08:15:52.631Z,30.92
2024-05-09T08:18:19.783Z,30.02
2024-05-09T08:20:48.624Z,31.60
2024-05-09T08:23:15.508Z,30.30
2024-05-09T08:25:42.295Z,29.43
2024-05-09T08:28:09.597Z,29.72
2024-05-09T08:30:37.933Z,30.51
2024-05-09T08:33:06.839Z,29.60
2024-05-09T08:35:35.500Z,30.35
2024-05-09T08:38:07.140Z,29.42
2024-05-09T08:40:36.883Z,28.93
2024-05-09T08:43:10.504Z,28.59
2024-05-09T08:45:42.684Z,29.07
2024-05-09T08:48:12.593Z,28.06
2024-05-09T08:50:42.528Z,29.17
2024-05-09T08:53:09.517Z,28.54
2024-05-09T08:55:39.251Z,27.94
2024-05-09T08:58:12.588Z,26.57
2024-05-09T09:00:42.136Z,27.99
2024-05-09T09:03:11.480Z,29.36
2024-05-09T09:05:40.054Z,28.20
2024-05-09T09:08:08.437Z,28.39
2024-05-09T09:10:35.690Z,28.30
2024-05-09T09:13:04.926Z,27.82
2024-05-09T09:15:32.360Z,27.66
2024-05-09T09:18:00.877Z,28.38
2024-05-09T09:20:35.718Z,27.57
2024-05-09T09:23:04.634Z,27.98
2024-05-09T09:25:32.099Z,27.71
2024-05-09T09:27:59.142Z,28.72
2024-05-09T09:30:35.364Z,27.06
2024-05-09T09:33:05.770Z,27.84
2024-05-09T09:35:32.908Z,26.60
2024-05-09T09:38:02.692Z,26.32
2024-05-09T09:40:37.123Z,25.78
2024-05-09T09:43:14.008Z,26.27
2024-05-09T09:45:43.431Z,26.02
2024-05-09T09:48:10.823Z,25.65
2024-05-09T09:50:38.030Z,27.51
2024-05-09T09:53:07.522Z,26.35
2024-05-09T09:55:35.740Z,25.94
2024-05-09T09:58:04.250Z,26.29
2024-05-09T10:00:33.713Z,25.37
2024-05-09T10:03:01.616Z,24.69
2024-05-09T10:05:30.022Z,25.89
2024-05-09T10:07:58.554Z,26.32
2024-05-09T10:10:31.710Z,25.39
2024-05-09T10:13:06.224Z,26.96
2024-05-09T10:15:54.496Z,26.79
2024-05-09T10:18:27.282Z,25.55
2024-05-09T10:20:56.358Z,24.76
2024-05-09T10:23:33.337Z,26.55
2024-05-09T10:26:06.350Z,26.69
2024-05-09T10:28:41.926Z,27.84
2024-05-09T10:31:13.893Z,26.98
2024-05-09T10:33:52.397Z,26.97
2024-05-09T10:36:24.598Z,25.33
2024-05-09T10:38:55.067Z,29.64
2024-05-09T10:41:23.394Z,28.15
2024-05-09T10:43:50.685Z,26.68
2024-05-09T10:46:20.649Z,26.09
2024-05-09T10:48:48.552Z,26.25
2024-05-09T10:51:16.844Z,27.24
2024-05-09T10:53:45.048Z,27.73
2024-05-09T10:56:14.118Z,26.06
2024-05-09T10:58:40.846Z,25.95
2024-05-09T11:01:09.220Z,26.55
2024-05-09T11:03:37.018Z,26.57
2024-05-09T11:06:05.363Z,26.22
2024-05-09T11:08:32.884Z,25.42
2024-05-09T11:11:00.279Z,25.65
2024-05-09T11:13:30.793Z,25.92
2024-05-09T11:15:58.186Z,26.26
2024-05-09T11:18:29.787Z,25.85
2024-05-09T11:20:58.984Z,25.59
2024-05-09T11:23:27.505Z,25.68
2024-05-09T11:25:55.910Z,29.12
2024-05-09T11:28:23.404Z,26.39
2024-05-09T11:30:50.862Z,25.40
2024-05-09T11:33:20.661Z,26.89
2024-05-09T11:35:47.496Z,25.66
2024-05-09T11:38:14.395Z,27.24
2024-05-09T11:40:41.097Z,27.35
2024-05-09T11:43:07.902Z,25.68
2024-05-09T11:45:34.707Z,27.43
2024-05-09T11:48:01.783Z,27.18
2024-05-09T11:50:33.106Z,27.13
2024-05-09T11:53:02.366Z,26.67
2024-05-09T11:55:29.260Z,27.54
2024-05-09T11:57:57.069Z,27.48
2024-05-09T12:00:33.018Z,28.24
2024-05-09T12:03:04.997Z,27.98
2024-05-09T12:05:32.566Z,27.39
2024-05-09T12:07:59.562Z,27.96
2024-05-09T12:10:32.496Z,25.28
2024-05-09T12:13:02.231Z,26.32
2024-05-09T12:15:29.134Z,25.77
2024-05-09T12:17:58.382Z,29.62
2024-05-09T12:20:35.271Z,28.04
2024-05-09T12:23:05.189Z,27.42
2024-05-09T12:25:31.879Z,27.19
2024-05-09T12:27:58.712Z,27.52
2024-05-09T12:30:34.968Z,28.47
2024-05-09T12:33:05.951Z,27.46
2024-05-09T12:35:33.061Z,26.97
2024-05-09T12:38:00.150Z,26.50
2024-05-09T12:40:35.336Z,27.10
2024-05-09T12:43:06.369Z,26.78
2024-05-09T12:45:33.484Z,27.43
2024-05-09T12:48:00.557Z,26.64
2024-05-09T12:50:32.536Z,26.94
2024-05-09T12:53:02.107Z,29.42
2024-05-09T12:55:33.958Z,28.98
2024-05-09T12:58:08.292Z,29.11
2024-05-09T13:00:35.590Z,28.32
2024-05-09T13:03:02.748Z,28.28
2024-05-09T13:05:29.893Z,28.01
2024-05-09T13:07:57.202Z,28.82
2024-05-09T13:10:31.454Z,28.56
2024-05-09T13:13:00.774Z,29.52
2024-05-09T13:15:28.314Z,29.75
2024-05-09T13:17:58.081Z,28.29
2024-05-09T13:20:32.762Z,28.43
2024-05-09T13:23:03.306Z,29.78
2024-05-09T13:25:29.962Z,30.52
2024-05-09T13:27:57.583Z,29.39
2024-05-09T13:32:54.645Z,31.50
2024-05-09T13:35:21.408Z,31.26
2024-05-09T13:37:48.169Z,31.78
2024-05-09T13:40:23.012Z,31.78
2024-05-09T13:42:53.445Z,31.05
2024-05-09T13:45:20.253Z,32.96
2024-05-09T13:47:47.273Z,33.60
2024-05-09T13:50:20.565Z,33.00
2024-05-09T13:52:54.773Z,31.64
2024-05-09T13:55:21.515Z,32.81
2024-05-09T13:57:48.427Z,31.98
2024-05-09T14:00:27.322Z,32.56
2024-05-09T14:03:02.244Z,34.13
2024-05-09T14:05:29.132Z,33.09
2024-05-09T14:07:55.894Z,33.60
2024-05-09T14:10:28.536Z,33.94
2024-05-09T14:12:57.633Z,33.37
2024-05-09T14:15:24.315Z,32.53
2024-05-09T14:17:51.039Z,32.70
2024-05-09T14:20:28.178Z,33.16
2024-05-09T14:22:58.378Z,33.67
2024-05-09T14:25:26.633Z,31.74
2024-05-09T14:27:54.047Z,34.53
2024-05-09T14:30:30.177Z,32.91
2024-05-09T14:33:02.695Z,32.53
2024-05-09T14:35:29.479Z,32.34
2024-05-09T14:37:56.134Z,33.86
2024-05-09T14:40:35.835Z,34.21
2024-05-09T14:43:07.878Z,31.74
2024-05-09T14:45:34.938Z,32.31
2024-05-09T14:48:02.771Z,33.60
2024-05-09T14:50:35.835Z,34.20
2024-05-09T14:53:06.660Z,33.91
2024-05-09T14:55:36.709Z,34.86
2024-05-09T14:58:06.220Z,32.90
2024-05-09T15:00:36.331Z,34.34
2024-05-09T15:03:05.199Z,33.79
2024-05-09T15:05:32.042Z,33.88
2024-05-09T15:07:59.460Z,34.35
2024-05-09T15:10:33.883Z,35.06
2024-05-09T15:13:02.896Z,35.24
2024-05-09T15:15:29.954Z,35.29
2024-05-09T15:17:57.145Z,36.21
2024-05-09T15:20:31.444Z,36.59
2024-05-09T15:23:02.918Z,35.41
2024-05-09T15:25:29.836Z,36.21
2024-05-09T15:27:56.707Z,35.36
2024-05-09T15:30:30.603Z,35.30
2024-05-09T15:33:00.753Z,35.21
2024-05-09T15:35:27.839Z,37.22
2024-05-09T15:37:54.742Z,36.38
2024-05-09T15:40:30.901Z,35.41
2024-05-09T15:43:05.105Z,35.44
2024-05-09T15:45:32.148Z,36.00
2024-05-09T15:47:59.567Z,35.84
2024-05-09T15:50:36.190Z,35.10
2024-05-09T15:53:07.994Z,36.07
2024-05-09T15:55:35.603Z,37.00
2024-05-09T15:58:03.849Z,38.15
2024-05-09T16:00:38.638Z,36.59
2024-05-09T16:03:13.856Z,36.64
2024-05-09T16:05:43.902Z,36.41
2024-05-09T16:08:12.034Z,36.17
2024-05-09T16:10:43.437Z,37.32
2024-05-09T16:13:11.636Z,38.28
2024-05-09T16:15:38.492Z,38.41
2024-05-09T16:18:05.366Z,37.64
2024-05-09T16:20:38.970Z,38.21
2024-05-09T16:23:09.031Z,38.71
2024-05-09T16:25:36.110Z,39.51
2024-05-09T16:28:07.473Z,38.00
2024-05-09T16:30:37.202Z,39.06
2024-05-09T16:33:05.305Z,39.20
2024-05-09T16:35:32.594Z,39.43
2024-05-09T16:38:01.744Z,39.40
2024-05-09T16:40:36.307Z,40.43
2024-05-09T16:43:07.161Z,42.22
2024-05-09T16:45:34.340Z,44.01
2024-05-09T16:48:01.922Z,43.38
2024-05-09T16:50:33.862Z,42.49
2024-05-09T16:53:02.995Z,41.94
2024-05-09T16:55:29.948Z,42.93
2024-05-09T16:57:58.016Z,42.78
2024-05-09T17:00:36.080Z,42.26
2024-05-09T17:03:09.460Z,41.70
2024-05-09T17:05:36.993Z,42.51
2024-05-09T17:08:04.393Z,42.70
2024-05-09T17:10:33.925Z,43.71
2024-05-09T17:13:07.137Z,43.73
2024-05-09T17:15:36.090Z,44.19
2024-05-09T17:18:04.259Z,44.25
2024-05-09T17:20:34.662Z,44.65
2024-05-09T17:23:04.421Z,44.48
2024-05-09T17:25:31.512Z,45.19
2024-05-09T17:28:05.265Z,45.82
2024-05-09T17:30:36.415Z,46.54
2024-05-09T17:33:06.238Z,47.53
2024-05-09T17:35:33.133Z,48.07
2024-05-09T17:38:01.529Z,48.98
2024-05-09T17:40:33.544Z,49.02
2024-05-09T17:43:04.130Z,48.19
2024-05-09T17:45:31.921Z,47.76
2024-05-09T17:47:59.175Z,48.87
2024-05-09T17:50:31.932Z,48.57
2024-05-09T17:53:02.785Z,50.09
2024-05-09T17:55:29.843Z,50.32
2024-05-09T17:57:56.942Z,49.51
2024-05-09T18:00:34.274Z,50.29
2024-05-09T18:03:06.396Z,49.97
2024-05-09T18:05:34.786Z,51.37
2024-05-09T18:08:01.717Z,51.11
2024-05-09T18:10:35.235Z,51.15
2024-05-09T18:13:05.811Z,51.87
2024-05-09T18:15:33.205Z,52.44
2024-05-09T18:18:00.337Z,53.58
2024-05-09T18:20:37.222Z,54.25
2024-05-09T18:23:09.626Z,55.49
2024-05-09T18:25:36.452Z,56.24
2024-05-09T18:28:03.473Z,57.18
2024-05-09T18:30:34.930Z,58.30
2024-05-09T18:33:04.988Z,58.77
2024-05-09T18:35:33.159Z,59.25
2024-05-09T18:37:59.974Z,59.74
2024-05-09T18:40:33.381Z,59.62
2024-05-09T18:43:06.119Z,60.07
2024-05-09T18:45:34.482Z,60.61
2024-05-09T18:48:01.465Z,61.28
2024-05-09T18:50:34.863Z,61.63
2024-05-09T18:53:12.071Z,62.28
2024-05-09T18:55:40.352Z,62.63
2024-05-09T18:58:07.180Z,63.34
2024-05-09T19:00:37.602Z,63.05
2024-05-09T19:03:10.442Z,63.20
2024-05-09T19:05:40.496Z,63.28
2024-05-09T19:08:08.117Z,63.33
2024-05-09T19:10:36.378Z,63.42
2024-05-09T19:13:08.442Z,63.43
2024-05-09T19:15:39.228Z,63.76
2024-05-09T19:18:06.506Z,64.20
2024-05-09T19:20:35.111Z,64.51
2024-05-09T19:23:03.658Z,64.72
2024-05-09T19:25:30.702Z,64.04
2024-05-09T19:27:57.633Z,64.05
2024-05-09T19:30:32.994Z,64.21
2024-05-09T19:33:05.856Z,64.76
2024-05-09T19:35:32.987Z,65.09
2024-05-09T19:37:59.847Z,65.05
2024-05-09T19:40:31.424Z,64.32
2024-05-09T19:43:01.155Z,64.36
2024-05-09T19:45:28.238Z,64.56
2024-05-09T19:47:55.655Z,65.16
2024-05-09T19:50:30.847Z,65.99
2024-05-09T19:53:04.088Z,66.33
2024-05-09T19:55:30.709Z,66.79
2024-05-09T19:57:57.875Z,67.06
2024-05-09T20:00:32.657Z,67.40
2024-05-09T20:03:03.068Z,67.59
2024-05-09T20:05:31.215Z,67.84
2024-05-09T20:07:58.347Z,68.38
2024-05-09T20:10:31.391Z,68.58
2024-05-09T20:13:00.275Z,68.61
2024-05-09T20:15:27.097Z,69.15
2024-05-09T20:17:54.354Z,69.09
2024-05-09T20:20:32.083Z,69.11
2024-05-09T20:23:04.239Z,69.90
2024-05-09T20:25:30.911Z,70.15
2024-05-09T20:27:57.711Z,70.42
2024-05-09T20:30:31.348Z,70.74
2024-05-09T20:33:00.694Z,70.60
2024-05-09T20:35:30.494Z,70.53
2024-05-09T20:37:57.669Z,70.91
2024-05-09T20:40:29.280Z,71.04
2024-05-09T20:43:00.476Z,71.60
2024-05-09T20:45:27.305Z,72.62
2024-05-09T20:47:54.105Z,72.42
2024-05-09T20:50:28.996Z,72.42
2024-05-09T20:53:03.736Z,72.60
2024-05-09T20:55:30.727Z,72.54
2024-05-09T20:57:57.739Z,73.12
2024-05-09T21:00:33.819Z,73.34
2024-05-09T21:03:06.610Z,74.21
2024-05-09T21:05:34.650Z,73.91
2024-05-09T21:08:01.796Z,74.35
2024-05-09T21:10:32.719Z,74.23
2024-05-09T21:13:02.262Z,74.60
2024-05-09T21:15:29.708Z,74.45
2024-05-09T21:17:56.454Z,74.59
2024-05-09T21:20:28.848Z,75.01
2024-05-09T21:22:58.466Z,75.09
2024-05-09T21:25:25.348Z,74.92
2024-05-09T21:27:52.534Z,75.22
2024-05-09T21:30:31.194Z,75.31
2024-05-09T21:33:05.834Z,75.61
2024-05-09T21:35:32.740Z,75.69
2024-05-09T21:37:59.370Z,75.83
2024-05-09T21:40:33.392Z,76.01
2024-05-09T21:43:02.406Z,75.92
2024-05-09T21:45:29.206Z,76.44
2024-05-09T21:47:56.118Z,76.06
2024-05-09T21:50:28.681Z,76.46
2024-05-09T21:53:03.285Z,76.52
2024-05-09T21:55:30.216Z,76.69
2024-05-09T21:57:57.076Z,76.77
2024-05-09T22:00:32.055Z,76.91
2024-05-09T22:03:03.522Z,77.03
2024-05-09T22:05:30.525Z,77.02
2024-05-09T22:07:57.438Z,77.36
2024-05-09T22:10:30.595Z,76.80
2024-05-09T22:13:01.011Z,76.87
2024-05-09T22:15:27.741Z,77.24
2024-05-09T22:17:56.430Z,77.27
2024-05-09T22:20:32.859Z,77.20
2024-05-09T22:23:04.058Z,77.18
2024-05-09T22:25:31.954Z,77.48
2024-05-09T22:27:59.378Z,77.60
2024-05-09T22:30:34.383Z,77.48
2024-05-09T22:33:05.877Z,77.73
2024-05-09T22:35:33.004Z,78.12
2024-05-09T22:37:59.706Z,78.09
2024-05-09T22:40:38.170Z,77.78
2024-05-09T22:43:13.288Z,77.31
2024-05-09T22:45:40.150Z,77.75
2024-05-09T22:48:08.261Z,78.12
2024-05-09T22:50:35.132Z,78.19
2024-05-09T22:53:01.948Z,78.47
2024-05-09T22:55:28.878Z,78.72
2024-05-09T22:57:55.711Z,78.14
2024-05-09T23:00:30.899Z,78.41
2024-05-09T23:03:00.413Z,78.70
2024-05-09T23:05:27.640Z,78.74
2024-05-09T23:07:54.477Z,79.21
2024-05-09T23:10:28.172Z,78.89
2024-05-09T23:13:01.612Z,79.08
2024-05-09T23:15:28.547Z,79.23
2024-05-09T23:17:55.506Z,79.21
2024-05-09T23:20:33.093Z,79.45
2024-05-09T23:23:05.255Z,79.32
2024-05-09T23:25:32.006Z,78.73
2024-05-09T23:27:58.810Z,78.79
2024-05-09T23:30:33.756Z,79.08
2024-05-09T23:33:05.331Z,79.31
2024-05-09T23:35:32.276Z,79.96
2024-05-09T23:37:58.978Z,80.23
2024-05-09T23:40:36.812Z,80.13
2024-05-09T23:43:07.522Z,80.23
2024-05-09T23:45:34.918Z,79.85
2024-05-09T23:48:01.925Z,79.70
2024-05-09T23:50:35.899Z,79.58
2024-05-09T23:53:06.407Z,79.70
2024-05-09T23:55:33.968Z,79.56
2024-05-09T23:58:01.041Z,79.63
